Time;durP1;ratioP1;P1;durP2;ratioP2;P2;SDS_P1;SDS_P2;PMS_P1;PMS_P2;Temp;Humidity;BMP_temperature;BMP_pressure;BME280_temperature;BME280_humidity;BME280_pressure;Samples;Min_cycle;Max_cycle;Signal;HPM_P1;HPM_P2
2022/05/15 00:00:54;;;;;;;3.53;1.40;;;19.60;69.00;;;;;;5021235;28;20829;-80
2022/05/15 00:03:25;;;;;;;5.13;1.77;;;19.60;69.00;;;;;;5027822;28;20048;-81
2022/05/15 00:05:54;;;;;;;3.03;1.40;;;19.60;69.10;;;;;;5015292;28;20585;-81
2022/05/15 00:08:22;;;;;;;3.45;1.65;;;19.60;69.10;;;;;;5029748;28;20033;-79
2022/05/15 00:10:50;;;;;;;4.85;1.70;;;19.60;69.10;;;;;;5032308;28;20036;-80
2022/05/15 00:13:19;;;;;;;4.20;1.70;;;19.60;69.00;;;;;;5032052;28;20104;-80
2022/05/15 00:15:46;;;;;;;3.15;1.60;;;19.60;69.10;;;;;;5046725;28;20044;-80
2022/05/15 00:18:13;;;;;;;2.60;1.52;;;19.60;69.10;;;;;;5036662;28;20036;-80
2022/05/15 00:20:40;;;;;;;4.70;1.73;;;19.60;69.10;;;;;;5036413;28;20073;-79
2022/05/15 00:23:08;;;;;;;3.45;1.52;;;19.60;69.10;;;;;;5033407;28;20039;-79
2022/05/15 00:25:35;;;;;;;3.10;1.40;;;19.60;69.10;;;;;;5035224;28;20044;-82
2022/05/15 00:28:05;;;;;;;4.28;1.80;;;19.60;69.30;;;;;;5019112;28;20036;-80
2022/05/15 00:30:32;;;;;;;3.63;1.60;;;19.60;69.20;;;;;;5016255;28;20040;-81
2022/05/15 00:33:00;;;;;;;3.33;1.67;;;19.60;69.20;;;;;;5034489;28;20047;-81
2022/05/15 00:35:27;;;;;;;3.00;1.52;;;19.60;69.10;;;;;;5033090;28;20079;-79
2022/05/15 00:37:54;;;;;;;4.07;1.48;;;19.60;69.10;;;;;;5034914;28;20102;-77
2022/05/15 00:40:23;;;;;;;3.72;1.55;;;19.60;69.10;;;;;;5035390;28;20045;-78
2022/05/15 00:42:50;;;;;;;3.67;1.38;;;19.60;69.10;;;;;;5019832;28;20075;-82
2022/05/15 00:45:20;;;;;;;2.53;1.60;;;19.60;69.10;;;;;;5034836;28;20538;-82
2022/05/15 00:47:48;;;;;;;4.72;1.83;;;19.50;69.00;;;;;;5014548;28;21633;-79
2022/05/15 00:50:19;;;;;;;4.13;1.67;;;19.60;69.10;;;;;;5030507;28;20045;-77
2022/05/15 00:52:50;;;;;;;4.15;1.70;;;19.50;69.00;;;;;;5030054;28;20055;-79
2022/05/15 00:55:21;;;;;;;4.28;1.55;;;19.50;68.90;;;;;;5033301;28;20542;-78
2022/05/15 00:57:51;;;;;;;4.43;1.80;;;19.50;68.90;;;;;;5017237;28;20048;-81
2022/05/15 01:00:24;;;;;;;5.43;1.70;;;19.50;69.10;;;;;;5028565;28;20045;-80
2022/05/15 01:03:01;;;;;;;3.22;1.60;;;19.50;68.90;;;;;;5029687;28;20048;-77
2022/05/15 01:05:28;;;;;;;3.20;1.55;;;19.50;69.00;;;;;;5037078;28;20071;-79
2022/05/15 01:07:55;;;;;;;4.15;1.60;;;19.50;68.90;;;;;;5018885;28;20041;-79
2022/05/15 01:10:22;;;;;;;3.67;1.55;;;19.50;69.00;;;;;;5029959;28;20033;-79
2022/05/15 01:12:51;;;;;;;4.60;1.63;;;19.50;68.90;;;;;;5027392;28;20048;-79
2022/05/15 01:15:22;;;;;;;3.13;1.63;;;19.50;69.00;;;;;;5034571;28;20096;-78
2022/05/15 01:17:49;;;;;;;5.30;1.70;;;19.50;69.00;;;;;;5029952;28;20073;-79
2022/05/15 01:20:20;;;;;;;3.55;1.83;;;19.60;69.10;;;;;;5031110;28;20162;-80
2022/05/15 01:22:48;;;;;;;3.00;1.40;;;19.50;68.90;;;;;;5030084;28;20167;-80
2022/05/15 01:25:17;;;;;;;4.55;1.80;;;19.50;69.00;;;;;;5035559;28;20049;-79
2022/05/15 01:27:50;;;;;;;4.13;1.70;;;19.50;68.90;;;;;;5031105;28;20326;-81
2022/05/15 01:30:17;;;;;;;3.08;1.58;;;19.50;69.00;;;;;;5027462;28;20135;-79
2022/05/15 01:32:44;;;;;;;3.63;1.70;;;19.50;69.00;;;;;;5029594;28;20047;-79
2022/05/15 01:35:11;;;;;;;4.03;1.63;;;19.50;68.90;;;;;;5032562;28;20055;-78
2022/05/15 01:37:39;;;;;;;2.85;1.50;;;19.50;69.70;;;;;;5035007;28;20049;-80
2022/05/15 01:40:09;;;;;;;3.08;1.42;;;19.50;68.90;;;;;;5031342;28;20048;-79
2022/05/15 01:42:36;;;;;;;3.55;1.60;;;19.50;68.90;;;;;;5032695;28;20058;-79
2022/05/15 01:45:04;;;;;;;3.42;1.50;;;19.50;68.90;;;;;;5031178;28;20128;-80
2022/05/15 01:47:31;;;;;;;4.22;1.90;;;19.50;68.90;;;;;;5029268;28;20089;-79
2022/05/15 01:49:59;;;;;;;4.25;1.83;;;19.60;69.00;;;;;;5037168;28;20118;-80
2022/05/15 01:52:26;;;;;;;3.75;1.75;;;19.50;68.90;;;;;;5043056;28;20063;-79
2022/05/15 01:54:52;;;;;;;3.30;1.50;;;19.50;68.90;;;;;;5045317;28;20039;-78
2022/05/15 01:57:22;;;;;;;3.25;1.55;;;19.50;68.90;;;;;;5045491;28;20085;-80
2022/05/15 01:59:48;;;;;;;3.55;1.63;;;19.50;68.90;;;;;;5032967;28;20041;-80
2022/05/15 02:02:16;;;;;;;3.55;1.70;;;19.50;68.80;;;;;;5032291;28;20037;-79
2022/05/15 02:04:43;;;;;;;4.57;1.80;;;19.50;68.90;;;;;;5014251;28;20073;-79
2022/05/15 02:07:10;;;;;;;3.55;1.60;;;19.50;68.80;;;;;;5031571;28;20268;-78
2022/05/15 02:09:37;;;;;;;3.20;1.30;;;19.50;68.90;;;;;;5017497;28;20041;-77
2022/05/15 02:12:05;;;;;;;4.97;1.73;;;19.50;68.80;;;;;;5039768;28;20059;-79
2022/05/15 02:14:34;;;;;;;3.67;1.70;;;19.50;68.80;;;;;;5038137;28;20124;-78
2022/05/15 02:17:01;;;;;;;3.53;1.63;;;19.50;68.70;;;;;;5018130;28;20447;-81
2022/05/15 02:19:28;;;;;;;2.88;1.40;;;19.40;68.70;;;;;;5032107;28;20051;-78
2022/05/15 02:21:55;;;;;;;4.05;1.70;;;19.50;68.70;;;;;;5034783;28;20048;-79
2022/05/15 02:24:23;;;;;;;4.40;1.63;;;19.40;68.60;;;;;;5013385;28;20124;-78
2022/05/15 02:26:51;;;;;;;3.55;1.80;;;19.40;68.60;;;;;;5014591;28;20041;-78
2022/05/15 02:29:18;;;;;;;3.47;1.70;;;19.40;68.60;;;;;;5029477;28;20116;-79
2022/05/15 02:31:47;;;;;;;3.47;1.60;;;19.40;68.60;;;;;;5015531;28;20033;-78
2022/05/15 02:34:13;;;;;;;3.55;1.70;;;19.40;68.60;;;;;;5037314;28;20041;-79
2022/05/15 02:36:41;;;;;;;5.28;1.70;;;19.40;68.50;;;;;;5033820;28;20060;-79
2022/05/15 02:39:08;;;;;;;3.30;1.60;;;19.40;68.50;;;;;;5021418;28;20056;-79
2022/05/15 02:41:34;;;;;;;5.53;1.92;;;19.40;68.50;;;;;;5026274;28;20107;-77
2022/05/15 02:44:01;;;;;;;2.75;1.50;;;19.40;68.50;;;;;;5036884;28;20045;-79
2022/05/15 02:46:29;;;;;;;3.22;1.70;;;19.40;68.50;;;;;;5022799;28;20060;-78
2022/05/15 02:51:43;;;;;;;3.92;1.70;;;19.40;68.50;;;;;;5031198;28;20063;-78
2022/05/15 02:54:10;;;;;;;2.97;1.50;;;19.40;68.50;;;;;;5031247;28;20118;-79
2022/05/15 02:56:38;;;;;;;3.53;1.52;;;19.40;68.50;;;;;;5035961;28;20124;-80
2022/05/15 02:59:07;;;;;;;2.92;1.40;;;19.40;68.50;;;;;;5028663;28;20106;-79
2022/05/15 03:01:34;;;;;;;4.55;1.60;;;19.40;68.50;;;;;;5031653;28;20124;-79
2022/05/15 03:04:04;;;;;;;4.60;1.65;;;19.40;68.50;;;;;;5027122;28;20070;-80
2022/05/15 03:06:31;;;;;;;4.03;1.73;;;19.40;68.50;;;;;;5029151;28;20507;-82
2022/05/15 03:08:58;;;;;;;4.10;1.90;;;19.40;68.40;;;;;;5029598;28;20040;-79
2022/05/15 03:11:26;;;;;;;3.83;1.70;;;19.40;68.40;;;;;;5030471;28;20041;-78
2022/05/15 03:13:53;;;;;;;4.68;2.00;;;19.40;68.50;;;;;;5029970;28;20041;-78
2022/05/15 03:16:20;;;;;;;3.70;1.80;;;19.40;68.40;;;;;;5028275;28;20047;-79
2022/05/15 03:18:49;;;;;;;4.35;1.90;;;19.40;68.40;;;;;;5030376;28;20041;-79
2022/05/15 03:21:29;;;;;;;5.28;1.50;;;19.40;68.30;;;;;;5029603;28;20052;-80
2022/05/15 03:23:57;;;;;;;3.75;1.80;;;19.40;68.40;;;;;;5030921;28;20036;-79
2022/05/15 03:26:25;;;;;;;3.05;1.33;;;19.40;68.30;;;;;;5031183;28;20065;-79
2022/05/15 03:28:52;;;;;;;4.00;1.60;;;19.40;68.30;;;;;;5030586;28;20041;-79
2022/05/15 03:31:22;;;;;;;3.70;1.50;;;19.40;68.30;;;;;;5031290;28;20446;-79
2022/05/15 03:33:49;;;;;;;3.72;1.75;;;19.40;68.30;;;;;;5030809;28;20127;-78
2022/05/15 03:36:17;;;;;;;3.47;1.70;;;19.40;68.30;;;;;;5029257;28;20045;-79
2022/05/15 03:38:46;;;;;;;3.95;1.67;;;19.40;68.30;;;;;;5011893;28;20041;-79
2022/05/15 03:41:14;;;;;;;3.30;1.60;;;19.40;68.20;;;;;;5030013;28;20040;-79
2022/05/15 03:43:41;;;;;;;5.25;1.70;;;19.30;68.60;;;;;;5034368;28;20037;-78
2022/05/15 03:46:08;;;;;;;5.40;1.90;;;19.40;68.20;;;;;;5015316;28;20040;-81
2022/05/15 03:48:35;;;;;;;4.55;1.80;;;19.40;68.20;;;;;;5030603;28;20041;-78
2022/05/15 03:51:03;;;;;;;4.70;1.83;;;19.40;68.30;;;;;;5036785;28;20068;-79
2022/05/15 03:53:32;;;;;;;3.28;1.60;;;19.40;68.30;;;;;;5034535;28;20047;-79
2022/05/15 03:56:00;;;;;;;3.90;1.60;;;19.30;68.10;;;;;;5031859;28;20060;-80
2022/05/15 03:58:29;;;;;;;4.07;1.70;;;19.30;68.10;;;;;;5035143;28;20048;-78
2022/05/15 04:00:56;;;;;;;3.33;1.60;;;19.30;68.10;;;;;;5028897;28;20037;-77
2022/05/15 04:03:24;;;;;;;3.28;1.60;;;19.30;68.00;;;;;;5031944;28;20040;-79
2022/05/15 04:05:50;;;;;;;6.15;1.73;;;19.30;68.00;;;;;;5042155;28;20255;-79
2022/05/15 04:08:18;;;;;;;4.15;1.77;;;19.30;68.00;;;;;;5037613;28;20128;-80
2022/05/15 04:10:46;;;;;;;3.63;1.48;;;19.30;67.90;;;;;;5032809;28;20040;-80
2022/05/15 04:13:13;;;;;;;3.00;1.77;;;19.30;67.90;;;;;;5031168;28;20048;-77
2022/05/15 04:15:40;;;;;;;6.25;1.90;;;19.30;67.90;;;;;;5029635;28;20057;-80
2022/05/15 04:18:09;;;;;;;4.03;1.60;;;19.30;67.90;;;;;;5031971;28;20516;-78
2022/05/15 04:20:36;;;;;;;3.90;1.55;;;19.30;67.90;;;;;;5029954;28;20120;-79
2022/05/15 04:23:03;;;;;;;4.55;1.63;;;19.30;67.90;;;;;;5037494;28;20061;-80
2022/05/15 04:25:30;;;;;;;4.40;1.63;;;19.30;68.00;;;;;;5034037;28;20046;-79
2022/05/15 04:27:59;;;;;;;4.90;1.42;;;19.30;67.90;;;;;;5028571;28;20041;-77
2022/05/15 04:30:28;;;;;;;4.93;1.63;;;19.30;67.90;;;;;;5030368;28;20052;-79
2022/05/15 04:32:55;;;;;;;4.65;1.88;;;19.30;67.90;;;;;;5043351;28;20091;-78
2022/05/15 04:35:24;;;;;;;3.25;1.52;;;19.30;67.90;;;;;;5048211;28;20053;-79
2022/05/15 04:37:53;;;;;;;4.45;1.80;;;19.30;67.90;;;;;;5062115;28;20053;-80
2022/05/15 04:40:22;;;;;;;4.40;1.77;;;19.30;67.90;;;;;;5052136;28;20053;-78
2022/05/15 04:42:50;;;;;;;4.28;1.75;;;19.30;67.90;;;;;;5046013;28;20048;-79
2022/05/15 04:45:18;;;;;;;4.72;1.63;;;19.30;67.80;;;;;;5037239;28;20146;-78
2022/05/15 04:47:48;;;;;;;3.35;1.60;;;19.30;67.90;;;;;;5033341;28;20045;-78
2022/05/15 04:50:16;;;;;;;3.83;1.67;;;19.30;67.80;;;;;;5034651;28;20037;-77
2022/05/15 04:52:45;;;;;;;6.57;1.65;;;19.30;67.90;;;;;;5012664;28;20048;-78
2022/05/15 04:55:13;;;;;;;4.03;1.80;;;19.30;67.90;;;;;;5031731;28;20071;-79
2022/05/15 04:57:40;;;;;;;6.18;1.85;;;19.30;67.90;;;;;;5026318;28;20061;-78
2022/05/15 05:00:11;;;;;;;3.72;1.63;;;19.30;67.90;;;;;;5030294;28;20103;-78
2022/05/15 05:02:39;;;;;;;3.17;1.55;;;19.30;67.80;;;;;;5033288;28;20037;-81
2022/05/15 05:05:08;;;;;;;4.30;1.77;;;19.30;67.90;;;;;;5027748;28;20522;-78
2022/05/15 05:07:35;;;;;;;4.32;1.63;;;19.30;67.80;;;;;;5029109;28;20037;-79
2022/05/15 05:10:02;;;;;;;3.15;1.48;;;19.30;67.90;;;;;;5030703;28;20558;-79
2022/05/15 05:12:28;;;;;;;3.45;1.60;;;19.30;67.80;;;;;;5026831;28;20550;-79
2022/05/15 05:14:57;;;;;;;6.40;1.70;;;19.30;67.90;;;;;;5029997;28;20543;-78
2022/05/15 05:17:25;;;;;;;3.85;1.80;;;19.30;67.80;;;;;;5030955;28;20041;-79
2022/05/15 05:19:53;;;;;;;5.40;1.70;;;19.30;67.80;;;;;;5032445;28;20090;-78
2022/05/15 05:22:20;;;;;;;3.75;1.77;;;19.30;67.80;;;;;;5030861;28;20055;-79
2022/05/15 05:24:47;;;;;;;4.10;1.83;;;19.30;67.80;;;;;;5038549;28;20052;-79
2022/05/15 05:27:14;;;;;;;5.82;1.73;;;19.30;67.90;;;;;;5037051;28;20041;-81
2022/05/15 05:29:41;;;;;;;4.20;1.73;;;19.30;67.80;;;;;;5029454;28;20132;-78
2022/05/15 05:32:09;;;;;;;3.58;1.70;;;19.30;67.80;;;;;;5029544;28;20033;-79
2022/05/15 05:34:36;;;;;;;4.88;1.90;;;19.30;67.80;;;;;;5027030;28;20026;-77
2022/05/15 05:37:05;;;;;;;6.13;2.10;;;19.30;67.80;;;;;;5028829;28;20132;-79
2022/05/15 05:39:32;;;;;;;4.70;2.17;;;19.30;67.80;;;;;;5013432;28;20136;-80
2022/05/15 05:41:59;;;;;;;6.32;2.15;;;19.30;67.80;;;;;;5027262;28;20467;-78
2022/05/15 05:44:26;;;;;;;5.50;2.25;;;19.30;67.80;;;;;;5011268;28;20060;-78
2022/05/15 05:46:54;;;;;;;7.20;2.33;;;19.30;67.90;;;;;;5026885;28;20535;-79
2022/05/15 05:49:21;;;;;;;7.20;2.47;;;19.30;67.80;;;;;;5027826;28;20037;-81
2022/05/15 05:51:48;;;;;;;5.18;2.08;;;19.30;67.90;;;;;;5025975;28;20126;-79
2022/05/15 05:54:16;;;;;;;5.35;2.03;;;19.30;67.90;;;;;;5025898;28;20040;-79
2022/05/15 05:56:44;;;;;;;6.07;2.30;;;19.30;68.00;;;;;;5032828;28;20056;-78
2022/05/15 05:59:11;;;;;;;4.50;1.92;;;19.30;68.00;;;;;;5018905;28;20065;-78
2022/05/15 06:01:54;;;;;;;5.47;2.50;;;19.30;67.90;;;;;;5012441;28;20064;-79
2022/05/15 06:07:08;;;;;;;5.95;2.30;;;19.30;68.00;;;;;;5030253;28;20057;-78
2022/05/15 06:09:39;;;;;;;4.35;2.10;;;19.30;68.10;;;;;;5027974;28;20041;-77
2022/05/15 06:12:08;;;;;;;4.80;2.00;;;19.30;68.00;;;;;;5027536;28;20111;-77
2022/05/15 06:14:34;;;;;;;4.20;1.80;;;19.30;68.00;;;;;;5032994;28;20299;-80
2022/05/15 06:17:03;;;;;;;4.72;2.00;;;19.30;68.00;;;;;;5029204;28;20033;-80
2022/05/15 06:19:30;;;;;;;4.85;2.03;;;19.30;68.00;;;;;;5029395;28;20068;-78
2022/05/15 06:21:57;;;;;;;3.70;1.92;;;19.30;68.00;;;;;;5028973;28;20036;-80
2022/05/15 06:24:25;;;;;;;4.80;2.30;;;19.30;68.00;;;;;;5030050;28;20395;-77
2022/05/15 06:26:54;;;;;;;5.45;2.15;;;19.40;68.10;;;;;;5031496;28;20484;-77
2022/05/15 06:29:21;;;;;;;3.30;1.90;;;19.30;68.00;;;;;;5018647;28;20397;-77
2022/05/15 06:31:48;;;;;;;4.90;2.25;;;19.40;68.10;;;;;;5027810;28;20091;-81
2022/05/15 06:34:28;;;;;;;5.35;2.10;;;19.40;68.10;;;;;;5029422;28;20049;-78
2022/05/15 06:36:55;;;;;;;4.85;2.10;;;19.40;68.10;;;;;;5012678;28;20054;-79
2022/05/15 06:39:22;;;;;;;5.47;2.50;;;19.40;68.10;;;;;;5018667;28;20152;-80
2022/05/15 06:41:50;;;;;;;6.50;2.40;;;19.40;68.10;;;;;;5012263;28;20049;-80
2022/05/15 06:44:19;;;;;;;4.70;2.03;;;19.40;68.10;;;;;;5017511;28;20061;-78
2022/05/15 06:46:46;;;;;;;4.57;1.98;;;19.40;68.10;;;;;;5019671;28;20030;-79
2022/05/15 06:49:14;;;;;;;5.95;2.35;;;19.40;68.10;;;;;;5027517;28;20029;-78
2022/05/15 06:51:41;;;;;;;5.93;2.00;;;19.40;68.10;;;;;;5025729;28;20034;-79
2022/05/15 06:54:12;;;;;;;5.10;2.22;;;19.40;68.10;;;;;;5017805;28;20543;-78
2022/05/15 06:59:24;;;;;;;4.72;2.08;;;19.40;68.10;;;;;;5022172;28;20053;-79
2022/05/15 07:01:51;;;;;;;5.72;2.28;;;19.40;68.10;;;;;;5006312;28;20045;-79
2022/05/15 07:04:19;;;;;;;4.80;2.28;;;19.40;68.10;;;;;;5008360;28;20132;-79
2022/05/15 07:06:46;;;;;;;5.15;1.95;;;19.40;68.10;;;;;;5011681;28;20067;-78
2022/05/15 07:09:13;;;;;;;6.80;2.17;;;19.40;68.10;;;;;;5015405;28;20145;-78
2022/05/15 07:11:40;;;;;;;4.60;2.00;;;19.40;68.10;;;;;;5006262;28;20156;-78
2022/05/15 07:14:08;;;;;;;5.15;1.95;;;19.40;68.10;;;;;;5012331;28;20053;-78
2022/05/15 07:16:39;;;;;;;4.43;1.92;;;19.40;68.10;;;;;;5016113;28;20041;-79
2022/05/15 07:19:06;;;;;;;5.07;2.13;;;19.40;68.10;;;;;;5035095;28;20038;-78
2022/05/15 07:21:33;;;;;;;5.00;2.17;;;19.40;68.10;;;;;;5023683;28;20327;-79
2022/05/15 07:24:00;;;;;;;5.38;1.98;;;19.40;68.10;;;;;;5017372;28;20087;-78
2022/05/15 07:26:27;;;;;;;5.28;2.08;;;19.50;68.20;;;;;;5010057;28;20040;-79
2022/05/15 07:28:54;;;;;;;4.95;2.20;;;19.50;68.30;;;;;;5014099;28;20034;-78
2022/05/15 07:31:22;;;;;;;4.35;2.00;;;19.50;68.30;;;;;;5014546;28;20069;-78
2022/05/15 07:33:50;;;;;;;6.38;2.42;;;19.50;68.30;;;;;;5029432;28;20037;-80
2022/05/15 07:36:18;;;;;;;5.68;2.30;;;19.50;68.30;;;;;;5022571;28;20072;-77
2022/05/15 07:38:46;;;;;;;3.90;1.90;;;19.50;68.40;;;;;;5033622;28;20045;-78
2022/05/15 07:41:14;;;;;;;5.20;2.25;;;19.50;68.40;;;;;;5034935;28;20049;-79
2022/05/15 07:43:41;;;;;;;4.55;2.10;;;19.50;68.30;;;;;;5031601;28;20056;-77
2022/05/15 07:46:08;;;;;;;4.50;2.00;;;19.50;68.30;;;;;;5032689;28;20037;-78
2022/05/15 07:48:35;;;;;;;4.82;2.08;;;19.50;68.40;;;;;;5027808;28;20076;-78
2022/05/15 07:51:04;;;;;;;6.13;2.25;;;19.50;68.40;;;;;;5026337;28;20042;-78
2022/05/15 07:53:31;;;;;;;5.88;2.28;;;19.50;68.40;;;;;;5028250;28;20049;-79
2022/05/15 07:56:03;;;;;;;4.60;1.80;;;19.50;68.50;;;;;;5027288;28;20037;-78
2022/05/15 07:58:32;;;;;;;7.47;2.42;;;19.50;68.40;;;;;;5031486;28;20041;-77
2022/05/15 08:01:03;;;;;;;5.45;2.25;;;19.60;68.60;;;;;;5026307;28;20648;-78
2022/05/15 08:03:33;;;;;;;5.63;2.30;;;19.60;68.60;;;;;;5017691;28;20122;-79
2022/05/15 08:08:47;;;;;;;4.45;2.00;;;19.60;68.70;;;;;;5034529;28;20147;-79
2022/05/15 08:11:20;;;;;;;5.68;2.13;;;19.60;68.70;;;;;;5027266;28;20048;-79
2022/05/15 08:13:51;;;;;;;5.32;2.10;;;19.60;68.70;;;;;;5029960;28;20041;-79
2022/05/15 08:16:18;;;;;;;5.63;2.10;;;19.60;68.70;;;;;;5028217;28;20041;-80
2022/05/15 08:24:15;;;;;;;4.65;2.05;;;19.60;68.70;;;;;;5010416;28;20053;-78
2022/05/15 08:26:44;;;;;;;3.05;1.85;;;19.60;68.70;;;;;;5030971;28;20041;-81
2022/05/15 08:29:11;;;;;;;3.80;1.83;;;19.60;68.80;;;;;;5027453;28;20041;-81
2022/05/15 08:31:39;;;;;;;3.65;1.90;;;19.60;68.80;;;;;;5029156;28;20041;-80
2022/05/15 08:34:07;;;;;;;6.30;2.28;;;19.60;68.70;;;;;;5028753;28;20128;-80
2022/05/15 08:36:34;;;;;;;4.78;2.05;;;19.70;69.00;;;;;;5035324;28;20067;-81
2022/05/15 08:39:12;;;;;;;3.90;1.98;;;19.70;68.80;;;;;;5043096;28;20041;-80
2022/05/15 08:41:48;;;;;;;4.00;1.92;;;19.70;68.90;;;;;;5032745;28;20037;-79
2022/05/15 08:44:18;;;;;;;4.38;1.98;;;19.80;69.00;;;;;;5017403;28;20032;-79
2022/05/15 08:47:04;;;;;;;5.60;2.08;;;19.70;68.80;;;;;;5020528;28;20037;-79
2022/05/15 08:49:35;;;;;;;5.20;2.10;;;19.70;68.80;;;;;;5048859;28;20701;-80
2022/05/15 08:52:10;;;;;;;5.28;2.03;;;19.70;68.90;;;;;;5036135;28;20061;-80
2022/05/15 08:54:42;;;;;;;4.25;2.00;;;19.70;68.80;;;;;;5021193;28;20646;-81
2022/05/15 08:57:20;;;;;;;3.17;1.73;;;19.80;69.00;;;;;;5030656;28;20392;-79
2022/05/15 08:59:54;;;;;;;4.30;1.67;;;19.80;68.90;;;;;;5030470;28;20049;-79
2022/05/15 09:02:23;;;;;;;3.65;1.80;;;19.80;68.90;;;;;;5028218;28;20056;-78
2022/05/15 09:04:52;;;;;;;4.22;1.92;;;19.80;68.90;;;;;;5037274;28;20202;-78
2022/05/15 09:07:37;;;;;;;6.03;2.03;;;19.80;68.80;;;;;;5035073;28;20089;-79
2022/05/15 09:10:16;;;;;;;4.35;2.08;;;19.80;68.80;;;;;;5035680;28;20045;-80
2022/05/15 09:12:50;;;;;;;3.47;1.70;;;19.80;68.80;;;;;;5029472;28;20099;-79
2022/05/15 09:15:19;;;;;;;3.25;1.60;;;19.80;68.80;;;;;;5034476;28;20060;-81
2022/05/15 09:17:50;;;;;;;4.32;1.98;;;19.80;68.80;;;;;;5031202;28;20037;-78
2022/05/15 09:20:28;;;;;;;5.07;1.90;;;19.80;68.80;;;;;;5029557;28;20044;-81
2022/05/15 09:22:59;;;;;;;5.10;1.60;;;19.80;68.70;;;;;;5018921;28;20080;-78
2022/05/15 09:25:27;;;;;;;3.50;1.80;;;19.80;68.70;;;;;;5034895;28;20064;-78
2022/05/15 09:28:01;;;;;;;3.72;1.65;;;19.80;68.70;;;;;;5015788;28;20492;-80
2022/05/15 09:30:42;;;;;;;4.53;1.77;;;19.90;68.70;;;;;;5030215;28;20049;-79
2022/05/15 09:33:24;;;;;;;3.25;1.60;;;19.80;68.70;;;;;;5029360;28;21425;-79
2022/05/15 09:35:51;;;;;;;4.65;1.85;;;19.90;68.80;;;;;;5029629;28;20063;-80
2022/05/15 09:38:28;;;;;;;4.60;1.75;;;19.90;68.70;;;;;;5030084;28;20056;-80
2022/05/15 09:43:52;;;;;;;9.60;2.17;;;19.90;68.70;;;;;;5013946;28;20045;-80
2022/05/15 09:46:21;;;;;;;12.25;2.42;;;19.90;67.90;;;;;;5011116;28;20072;-79
2022/05/15 09:48:52;;;;;;;4.55;1.80;;;20.00;68.10;;;;;;5033971;28;20084;-79
2022/05/15 09:51:37;;;;;;;5.28;1.90;;;20.00;68.00;;;;;;5029484;28;20051;-77
2022/05/15 09:54:04;;;;;;;9.23;1.90;;;19.90;67.90;;;;;;5028900;28;20428;-80
2022/05/15 09:56:34;;;;;;;6.28;1.80;;;20.00;68.20;;;;;;5031861;28;20048;-77
2022/05/15 09:59:11;;;;;;;7.32;1.80;;;20.00;67.80;;;;;;5030652;28;20130;-78
2022/05/15 10:01:40;;;;;;;5.82;2.00;;;20.00;67.80;;;;;;5038695;28;20037;-78
2022/05/15 10:04:19;;;;;;;6.25;1.80;;;19.90;67.90;;;;;;5044782;28;20037;-78
2022/05/15 10:06:51;;;;;;;7.35;1.80;;;20.00;68.00;;;;;;5048080;28;20052;-79
2022/05/15 10:09:26;;;;;;;4.50;1.60;;;20.00;68.00;;;;;;5043316;28;20084;-79
2022/05/15 10:12:00;;;;;;;5.80;1.90;;;20.00;68.00;;;;;;5032772;28;20043;-81
2022/05/15 10:14:37;;;;;;;4.90;1.70;;;19.90;67.80;;;;;;5017431;28;20061;-79
2022/05/15 10:17:06;;;;;;;5.75;1.90;;;20.00;67.90;;;;;;5029918;28;20064;-81
2022/05/15 10:19:39;;;;;;;4.75;1.65;;;20.00;67.80;;;;;;5032629;28;20068;-81
2022/05/15 10:22:15;;;;;;;7.25;1.80;;;20.00;67.70;;;;;;5025051;28;20043;-81
2022/05/15 10:24:46;;;;;;;5.32;1.60;;;20.00;67.60;;;;;;5030273;28;20161;-80
2022/05/15 10:27:19;;;;;;;8.52;1.60;;;20.00;67.70;;;;;;5031535;28;20052;-81
2022/05/15 10:29:54;;;;;;;7.05;1.70;;;20.00;67.80;;;;;;5034432;28;20057;-82
2022/05/15 10:32:27;;;;;;;3.38;1.60;;;20.00;67.60;;;;;;5031428;28;20124;-82
2022/05/15 10:34:55;;;;;;;3.88;1.70;;;20.10;67.60;;;;;;5032989;28;20046;-82
2022/05/15 10:37:53;;;;;;;4.45;1.70;;;20.00;67.60;;;;;;5014196;28;20045;-83
2022/05/15 10:40:27;;;;;;;3.85;1.58;;;20.00;67.40;;;;;;5014110;28;20045;-81
2022/05/15 10:43:17;;;;;;;5.85;1.50;;;20.00;67.30;;;;;;5008204;28;20037;-81
2022/05/15 10:45:52;;;;;;;4.03;1.50;;;20.00;67.30;;;;;;5016065;28;20156;-81
2022/05/15 10:48:36;;;;;;;3.38;1.58;;;20.10;67.30;;;;;;5017977;28;20033;-79
2022/05/15 10:51:10;;;;;;;3.67;1.40;;;20.10;67.40;;;;;;5030443;28;20108;-80
2022/05/15 10:59:47;;;;;;;4.03;1.45;;;20.10;67.10;;;;;;5018913;28;20072;-80
2022/05/15 11:02:54;;;;;;;4.55;1.50;;;20.10;67.10;;;;;;5016659;28;20395;-82
2022/05/15 11:05:27;;;;;;;3.80;1.60;;;20.10;66.90;;;;;;5017849;28;20038;-79
2022/05/15 11:08:04;;;;;;;4.78;1.40;;;20.10;67.00;;;;;;5019526;28;20052;-82
2022/05/15 11:10:39;;;;;;;4.53;1.58;;;20.10;67.10;;;;;;5020123;28;20056;-82
2022/05/15 11:13:12;;;;;;;3.50;1.40;;;20.10;67.10;;;;;;5017624;28;20081;-80
2022/05/15 11:15:57;;;;;;;3.53;1.60;;;20.10;66.90;;;;;;5019771;28;20053;-80
2022/05/15 11:18:53;;;;;;;3.78;1.40;;;20.10;66.80;;;;;;5020356;28;20064;-81
2022/05/15 11:21:26;;;;;;;4.03;1.70;;;20.10;66.90;;;;;;5024952;28;20511;-80
2022/05/15 11:23:58;;;;;;;3.22;1.38;;;20.10;66.80;;;;;;5027680;28;20068;-80
2022/05/15 11:26:27;;;;;;;3.60;1.70;;;20.10;66.80;;;;;;5022789;28;20029;-80
2022/05/15 11:28:57;;;;;;;4.60;1.30;;;20.10;66.70;;;;;;5016210;28;20042;-80
2022/05/15 11:31:32;;;;;;;4.40;1.30;;;20.10;66.60;;;;;;5010133;28;20046;-79
2022/05/15 11:34:03;;;;;;;3.28;1.30;;;20.20;66.80;;;;;;5031122;28;20057;-80
2022/05/15 11:36:35;;;;;;;4.32;1.50;;;20.10;66.60;;;;;;5027378;28;20072;-81
2022/05/15 11:39:22;;;;;;;2.80;1.27;;;20.10;66.50;;;;;;5032519;28;20057;-80
2022/05/15 11:42:17;;;;;;;3.20;1.38;;;20.10;66.60;;;;;;5031057;28;20033;-80
2022/05/15 11:44:48;;;;;;;6.72;1.60;;;20.10;66.40;;;;;;4994855;28;20037;-80
2022/05/15 11:47:31;;;;;;;6.45;2.03;;;20.10;66.50;;;;;;5028437;28;20062;-78
2022/05/15 11:50:14;;;;;;;3.33;1.50;;;20.10;66.30;;;;;;5032833;28;20060;-80
2022/05/15 11:53:03;;;;;;;3.92;1.25;;;20.10;66.50;;;;;;5034726;28;20107;-80
2022/05/15 11:55:46;;;;;;;4.43;1.63;;;20.10;66.40;;;;;;5017112;28;20049;-80
2022/05/15 11:58:30;;;;;;;3.33;1.35;;;20.10;66.30;;;;;;5015586;28;20060;-79
2022/05/15 12:01:31;;;;;;;5.47;1.42;;;20.10;66.30;;;;;;5030261;28;20053;-80
2022/05/15 12:03:59;;;;;;;5.38;1.60;;;20.10;66.10;;;;;;5031853;28;20095;-80
2022/05/15 12:06:31;;;;;;;2.90;1.30;;;20.10;66.20;;;;;;5018155;28;20041;-81
2022/05/15 12:09:25;;;;;;;3.72;1.60;;;20.10;66.20;;;;;;5013863;28;20042;-81
2022/05/15 12:11:54;;;;;;;3.13;1.40;;;20.10;66.30;;;;;;5015990;28;20102;-80
2022/05/15 12:14:35;;;;;;;6.68;1.60;;;20.10;66.00;;;;;;5030991;28;20113;-81
2022/05/15 12:17:07;;;;;;;4.03;1.30;;;20.10;65.90;;;;;;5013890;28;20041;-80
2022/05/15 12:19:37;;;;;;;3.72;1.20;;;20.20;65.80;;;;;;5028552;28;20451;-80
2022/05/15 12:22:11;;;;;;;4.50;1.30;;;20.20;66.20;;;;;;5015989;28;20052;-80
2022/05/15 12:24:47;;;;;;;3.45;1.40;;;20.10;66.00;;;;;;5028258;28;20408;-80
2022/05/15 12:27:21;;;;;;;3.40;1.25;;;20.20;66.10;;;;;;5017399;28;20048;-80
2022/05/15 12:30:15;;;;;;;2.83;1.20;;;20.20;66.10;;;;;;5013902;28;20049;-81
2022/05/15 12:32:53;;;;;;;4.85;1.30;;;20.20;66.50;;;;;;5036043;28;20080;-80
2022/05/15 12:35:25;;;;;;;3.00;1.30;;;20.20;65.90;;;;;;5032946;28;20412;-81
2022/05/15 12:38:02;;;;;;;3.03;1.17;;;20.20;65.90;;;;;;5036250;28;20106;-82
2022/05/15 12:40:33;;;;;;;7.70;1.50;;;20.20;65.80;;;;;;5035834;28;20048;-79
2022/05/15 12:43:03;;;;;;;4.38;1.25;;;20.20;65.80;;;;;;5034924;28;20049;-80
2022/05/15 12:45:33;;;;;;;4.43;1.50;;;20.20;65.80;;;;;;5044994;28;20487;-79
2022/05/15 12:48:06;;;;;;;3.20;1.33;;;20.20;65.80;;;;;;5048291;28;20033;-81
2022/05/15 12:50:34;;;;;;;6.97;1.60;;;20.10;65.60;;;;;;5053686;28;20029;-79
2022/05/15 12:53:03;;;;;;;2.92;1.30;;;20.20;65.60;;;;;;5055310;28;20048;-81
2022/05/15 12:55:35;;;;;;;3.65;1.15;;;20.20;65.70;;;;;;5048625;28;20045;-79
2022/05/15 12:58:08;;;;;;;7.07;1.63;;;20.20;66.50;;;;;;5023080;28;20049;-80
2022/05/15 13:00:46;;;;;;;4.43;1.50;;;20.20;65.70;;;;;;5013581;28;20045;-80
2022/05/15 13:03:19;;;;;;;3.47;1.13;;;20.20;65.50;;;;;;5032521;28;20083;-79
2022/05/15 13:05:53;;;;;;;3.33;1.30;;;20.20;65.60;;;;;;5015842;28;20116;-81
2022/05/15 13:08:22;;;;;;;4.10;1.23;;;20.10;65.70;;;;;;5030519;28;20519;-81
2022/05/15 13:11:02;;;;;;;2.72;1.35;;;20.20;65.80;;;;;;5033219;28;20045;-79
2022/05/15 13:13:34;;;;;;;3.63;1.50;;;20.20;65.80;;;;;;5011428;28;20619;-78
2022/05/15 13:16:03;;;;;;;3.03;1.30;;;20.20;65.70;;;;;;5026457;28;20065;-80
2022/05/15 13:18:44;;;;;;;3.45;1.17;;;20.20;65.70;;;;;;5030968;28;20041;-81
2022/05/15 13:21:11;;;;;;;4.13;1.40;;;20.20;65.70;;;;;;5029968;28;20037;-79
2022/05/15 13:23:43;;;;;;;3.83;1.30;;;20.20;65.70;;;;;;5026767;28;20128;-79
2022/05/15 13:26:12;;;;;;;;;;;20.20;65.70;;;;;;5026985;28;20045;-80
2022/05/15 13:28:42;;;;;;;2.97;1.17;;;20.20;65.90;;;;;;5027844;28;19985;-78
2022/05/15 13:31:11;;;;;;;5.88;1.40;;;20.20;65.80;;;;;;5013971;28;20707;-79